Time;durP1;ratioP1;P1;durP2;ratioP2;P2;SDS_P1;SDS_P2;PMS_P1;PMS_P2;Temp;Humidity;BMP_temperature;BMP_pressure;BME280_temperature;BME280_humidity;BME280_pressure;Samples;Min_cycle;Max_cycle;Signal;HPM_P1;HPM_P2
2022/10/03 00:00:14;;;;;;;12.00;7.17;;;11.40;99.90;;;;;;5029736;28;20470;-38
2022/10/03 00:03:01;;;;;;;12.87;5.30;;;11.30;99.90;;;;;;5029251;28;20420;-37
2022/10/03 00:05:34;;;;;;;16.03;6.97;;;11.30;99.90;;;;;;5029596;28;20792;-38
2022/10/03 00:08:25;;;;;;;9.23;5.87;;;11.20;99.90;;;;;;5029791;28;20428;-37
2022/10/03 00:11:32;;;;;;;13.40;6.00;;;11.20;99.90;;;;;;5029742;28;20421;-37
2022/10/03 00:14:16;;;;;;;13.10;6.00;;;11.10;99.90;;;;;;5018844;28;20476;-37
2022/10/03 00:16:51;;;;;;;11.13;5.90;;;11.00;99.90;;;;;;5029455;28;20902;-37
2022/10/03 00:19:43;;;;;;;13.13;5.70;;;11.00;99.90;;;;;;5029398;28;20431;-37
2022/10/03 00:22:27;;;;;;;11.20;6.60;;;11.00;99.90;;;;;;5016701;28;20437;-37
2022/10/03 00:25:42;;;;;;;20.33;7.37;;;11.10;99.90;;;;;;5029160;28;20512;-37
2022/10/03 00:28:59;;;;;;;15.57;7.17;;;11.10;99.90;;;;;;5025583;28;20503;-37
2022/10/03 00:31:43;;;;;;;14.23;6.47;;;11.00;99.90;;;;;;5001017;28;20432;-37
2022/10/03 00:34:20;;;;;;;12.83;6.00;;;11.00;99.90;;;;;;5022810;28;20983;-37
2022/10/03 00:37:04;;;;;;;14.07;7.53;;;11.00;99.90;;;;;;5033264;28;20951;-38
2022/10/03 00:39:30;;;;;;;16.10;6.60;;;11.00;99.90;;;;;;5032964;28;20413;-37
2022/10/03 00:42:35;;;;;;;18.93;6.07;;;11.00;99.90;;;;;;5032991;28;20762;-37
2022/10/03 00:45:31;;;;;;;10.03;6.10;;;11.10;99.90;;;;;;5031006;28;20433;-38
2022/10/03 00:48:14;;;;;;;12.20;5.30;;;11.10;99.90;;;;;;5032815;28;20414;-38
2022/10/03 00:51:11;;;;;;;9.50;5.27;;;11.20;99.90;;;;;;5032542;28;20927;-37
2022/10/03 00:54:01;;;;;;;18.40;8.13;;;11.20;99.90;;;;;;5032030;28;20457;-37
2022/10/03 00:56:26;;;;;;;14.13;5.47;;;11.10;99.90;;;;;;5021766;28;20417;-37
2022/10/03 00:59:10;;;;;;;9.30;5.10;;;11.20;99.90;;;;;;5032250;28;20764;-37
2022/10/03 01:01:49;;;;;;;14.73;5.80;;;11.10;99.90;;;;;;5032743;28;20261;-37
2022/10/03 01:04:39;;;;;;;12.97;6.50;;;11.10;99.90;;;;;;5031750;28;20425;-37
2022/10/03 01:07:13;;;;;;;14.43;5.87;;;11.10;99.90;;;;;;5032513;28;20475;-37
2022/10/03 01:10:21;;;;;;;12.20;6.13;;;11.10;99.90;;;;;;5032340;28;20416;-37
2022/10/03 01:13:14;;;;;;;13.03;6.43;;;11.10;99.90;;;;;;5031486;28;20503;-37
2022/10/03 01:15:56;;;;;;;10.97;5.27;;;11.10;99.90;;;;;;5030124;28;20462;-37
2022/10/03 01:18:26;;;;;;;11.00;5.70;;;11.10;99.90;;;;;;5032166;28;20797;-38
2022/10/03 01:21:04;;;;;;;11.60;5.27;;;11.10;99.90;;;;;;5032888;28;20757;-37
2022/10/03 01:23:53;;;;;;;11.07;4.90;;;11.00;99.90;;;;;;5031421;28;20434;-37
2022/10/03 01:26:47;;;;;;;12.00;5.10;;;11.00;99.90;;;;;;5032196;28;20447;-37
2022/10/03 01:32:44;;;;;;;11.00;5.50;;;10.90;99.90;;;;;;5031831;28;20436;-37
2022/10/03 01:35:31;;;;;;;14.60;7.70;;;11.00;99.90;;;;;;5032038;28;20532;-38
2022/10/03 01:38:23;;;;;;;11.67;5.37;;;11.00;99.90;;;;;;5031875;28;20474;-38
2022/10/03 01:40:52;;;;;;;12.27;5.20;;;11.00;99.90;;;;;;5030775;28;20413;-37
2022/10/03 01:43:21;;;;;;;10.47;5.33;;;11.00;99.90;;;;;;5031070;28;20414;-37
2022/10/03 01:46:26;;;;;;;9.30;5.40;;;11.00;99.90;;;;;;5027256;28;20745;-38
2022/10/03 01:49:04;;;;;;;9.83;5.63;;;10.90;99.90;;;;;;5021588;28;20429;-37
2022/10/03 01:51:39;;;;;;;10.97;5.20;;;10.90;99.90;;;;;;5031866;28;20451;-37
2022/10/03 01:54:13;;;;;;;9.20;5.20;;;10.80;99.90;;;;;;5029590;28;20492;-37
2022/10/03 01:56:45;;;;;;;11.80;5.60;;;10.80;99.90;;;;;;5031647;28;20425;-37
2022/10/03 01:59:31;;;;;;;10.27;5.83;;;10.80;99.90;;;;;;5031309;28;20419;-37
2022/10/03 02:02:06;;;;;;;12.50;5.27;;;10.70;99.90;;;;;;5031334;28;20429;-37
2022/10/03 02:04:50;;;;;;;9.93;4.73;;;10.60;99.90;;;;;;5030691;28;20803;-38
2022/10/03 02:07:33;;;;;;;10.27;5.43;;;10.60;99.90;;;;;;5031376;28;20429;-37
2022/10/03 02:10:34;;;;;;;9.33;4.57;;;10.50;99.90;;;;;;5030986;28;20429;-37
2022/10/03 02:13:22;;;;;;;9.27;4.87;;;10.50;99.90;;;;;;5030689;28;20465;-36
2022/10/03 02:16:25;;;;;;;8.97;5.20;;;10.50;99.90;;;;;;5031055;28;20935;-37
2022/10/03 02:19:20;;;;;;;9.33;4.93;;;10.50;99.90;;;;;;5031151;28;20428;-37
2022/10/03 02:21:52;;;;;;;9.23;4.77;;;10.50;99.90;;;;;;5033962;28;20432;-37
2022/10/03 02:24:20;;;;;;;9.47;4.63;;;10.40;99.90;;;;;;5029512;28;20439;-37
2022/10/03 02:27:23;;;;;;;6.60;4.30;;;10.40;99.90;;;;;;5030733;28;20429;-37
2022/10/03 02:30:16;;;;;;;9.80;5.43;;;10.40;99.90;;;;;;5030829;28;20954;-37
2022/10/03 02:33:22;;;;;;;15.03;4.40;;;10.40;99.90;;;;;;5023156;28;20764;-37
2022/10/03 02:35:51;;;;;;;12.87;5.73;;;10.30;99.90;;;;;;5030747;28;20425;-37
2022/10/03 02:38:16;;;;;;;10.17;4.80;;;10.30;99.90;;;;;;5030785;28;20417;-37
2022/10/03 02:41:26;;;;;;;9.03;5.07;;;10.40;99.90;;;;;;5030602;28;20428;-37
2022/10/03 02:44:19;;;;;;;10.10;5.33;;;10.40;99.90;;;;;;5024841;28;20264;-37
2022/10/03 02:47:10;;;;;;;10.67;5.40;;;10.40;99.90;;;;;;5019242;28;20504;-37
2022/10/03 02:49:43;;;;;;;8.20;4.53;;;10.40;99.90;;;;;;5030173;28;20421;-37
2022/10/03 02:52:36;;;;;;;13.73;5.87;;;10.40;99.90;;;;;;5030435;28;20520;-37
2022/10/03 02:55:29;;;;;;;11.90;6.10;;;10.50;99.90;;;;;;5029387;28;20461;-37
2022/10/03 02:58:13;;;;;;;8.60;5.67;;;10.50;99.90;;;;;;5030096;28;20421;-37
2022/10/03 03:00:54;;;;;;;16.60;5.40;;;10.50;99.90;;;;;;5030399;28;20424;-37
2022/10/03 03:03:38;;;;;;;13.80;5.77;;;10.40;99.90;;;;;;5029683;28;20421;-37
2022/10/03 03:06:28;;;;;;;11.97;5.30;;;10.50;99.90;;;;;;5029959;28;20444;-37
2022/10/03 03:09:28;;;;;;;14.23;5.70;;;10.50;99.90;;;;;;5029671;28;20417;-38
2022/10/03 03:12:28;;;;;;;12.10;6.90;;;10.50;99.90;;;;;;5028866;28;20453;-37
2022/10/03 03:15:00;;;;;;;6.97;5.70;;;10.50;99.90;;;;;;5018343;28;20544;-38
2022/10/03 03:17:34;;;;;;;15.07;5.50;;;10.60;99.90;;;;;;5028826;28;20425;-37
2022/10/03 03:20:30;;;;;;;11.30;4.87;;;10.50;99.90;;;;;;5032629;28;20433;-37
2022/10/03 03:23:26;;;;;;;7.07;5.47;;;10.50;99.90;;;;;;5028909;28;20543;-38
2022/10/03 03:26:36;;;;;;;7.03;5.00;;;10.50;99.90;;;;;;5030155;28;20428;-37
2022/10/03 03:29:29;;;;;;;13.03;5.87;;;10.60;99.90;;;;;;5019112;28;20781;-37
2022/10/03 03:32:07;;;;;;;9.23;6.30;;;10.50;99.90;;;;;;5017563;28;20433;-38
2022/10/03 03:34:56;;;;;;;17.60;6.70;;;10.50;99.90;;;;;;5029283;28;20966;-37
2022/10/03 03:37:56;;;;;;;12.20;6.30;;;10.50;99.90;;;;;;5029143;28;20437;-38
2022/10/03 03:40:31;;;;;;;10.80;5.70;;;10.50;99.90;;;;;;5030018;28;20433;-38
2022/10/03 03:43:17;;;;;;;9.13;6.20;;;10.50;99.90;;;;;;5029035;28;20416;-37
2022/10/03 03:45:54;;;;;;;10.90;6.20;;;10.50;99.90;;;;;;5023245;28;20441;-37
2022/10/03 03:48:44;;;;;;;9.00;6.20;;;10.40;99.90;;;;;;5029671;28;20427;-37
2022/10/03 03:51:27;;;;;;;8.67;5.87;;;10.40;99.90;;;;;;5028881;28;20445;-38
2022/10/03 03:54:18;;;;;;;9.83;5.77;;;10.40;99.90;;;;;;5023803;28;20844;-37
2022/10/03 03:57:00;;;;;;;16.77;6.70;;;10.40;99.90;;;;;;5027083;28;20443;-38
2022/10/03 04:00:02;;;;;;;8.10;6.67;;;10.40;99.90;;;;;;5016915;28;20424;-37
2022/10/03 04:02:51;;;;;;;11.10;6.70;;;10.50;99.90;;;;;;5029199;28;20425;-37
2022/10/03 04:05:47;;;;;;;11.13;6.50;;;10.60;99.90;;;;;;5033001;28;20547;-37
2022/10/03 04:08:25;;;;;;;10.07;6.27;;;10.70;99.90;;;;;;5033670;28;20770;-37
2022/10/03 04:11:32;;;;;;;13.17;6.77;;;10.70;99.90;;;;;;5033513;28;20421;-37
2022/10/03 04:14:13;;;;;;;13.73;6.90;;;10.70;99.90;;;;;;5032605;28;20480;-37
2022/10/03 04:20:03;;;;;;;12.27;6.07;;;10.70;99.90;;;;;;5029388;28;20416;-38
2022/10/03 04:22:40;;;;;;;12.43;6.70;;;10.70;99.90;;;;;;5032786;28;20826;-37
2022/10/03 04:25:44;;;;;;;8.50;5.90;;;10.70;99.90;;;;;;5031314;28;20424;-37
2022/10/03 04:28:10;;;;;;;11.40;5.80;;;10.70;99.90;;;;;;5033222;28;20425;-38
2022/10/03 04:31:03;;;;;;;12.77;6.60;;;10.60;99.90;;;;;;5033330;28;20425;-37
2022/10/03 04:33:53;;;;;;;11.70;6.83;;;10.60;99.90;;;;;;5032286;28;20214;-37
2022/10/03 04:36:37;;;;;;;11.57;6.10;;;10.60;99.90;;;;;;5033291;28;20826;-37
2022/10/03 04:39:35;;;;;;;11.80;7.00;;;10.60;99.90;;;;;;5033200;28;20420;-37
2022/10/03 04:42:21;;;;;;;12.53;6.10;;;10.60;99.90;;;;;;5032946;28;20413;-37
2022/10/03 04:45:08;;;;;;;12.10;6.87;;;10.60;99.90;;;;;;5032451;28;20893;-37
2022/10/03 04:47:51;;;;;;;12.10;6.20;;;10.60;99.90;;;;;;5031735;28;20898;-37
2022/10/03 04:50:37;;;;;;;14.23;7.17;;;10.60;99.90;;;;;;5032562;28;20431;-37
2022/10/03 04:53:48;;;;;;;11.90;7.07;;;10.60;99.90;;;;;;5031829;28;20433;-37
2022/10/03 04:56:32;;;;;;;10.83;6.97;;;10.70;99.90;;;;;;5029586;28;20577;-37
2022/10/03 04:59:35;;;;;;;12.27;6.80;;;10.70;99.90;;;;;;5029896;28;20421;-37
2022/10/03 05:02:18;;;;;;;12.27;6.00;;;10.70;99.90;;;;;;5029063;28;20425;-37
2022/10/03 05:05:00;;;;;;;12.40;6.70;;;10.70;99.90;;;;;;5031900;28;20465;-37
2022/10/03 05:07:40;;;;;;;11.90;6.10;;;10.80;99.90;;;;;;5032534;28;20931;-37
2022/10/03 05:10:28;;;;;;;12.90;6.50;;;10.80;99.90;;;;;;5032363;28;20421;-37
2022/10/03 05:13:10;;;;;;;15.07;6.60;;;10.70;99.90;;;;;;5020078;28;20429;-38
2022/10/03 05:16:01;;;;;;;10.50;6.63;;;10.80;99.90;;;;;;5030786;28;20425;-38
2022/10/03 05:18:42;;;;;;;13.97;6.30;;;10.70;99.90;;;;;;5032282;28;20433;-38
2022/10/03 05:21:40;;;;;;;11.93;6.77;;;10.80;99.90;;;;;;5035231;28;20452;-39
2022/10/03 05:24:33;;;;;;;11.63;6.80;;;10.80;99.90;;;;;;5031661;28;20496;-37
2022/10/03 05:27:25;;;;;;;11.00;6.80;;;10.80;99.90;;;;;;5032004;28;20421;-37
2022/10/03 05:30:06;;;;;;;14.70;6.97;;;10.70;99.90;;;;;;5031906;28;20948;-37
2022/10/03 05:32:55;;;;;;;13.23;8.30;;;10.70;99.90;;;;;;5031985;28;20789;-37
2022/10/03 05:35:41;;;;;;;10.37;6.90;;;10.70;99.90;;;;;;5030884;28;20448;-37
2022/10/03 05:38:15;;;;;;;9.90;6.67;;;10.60;99.90;;;;;;5031546;28;20449;-37
2022/10/03 05:41:00;;;;;;;12.73;7.33;;;10.60;99.90;;;;;;5032047;28;20495;-37
2022/10/03 05:43:51;;;;;;;11.90;6.73;;;10.60;99.90;;;;;;5031215;28;20417;-37
2022/10/03 05:46:44;;;;;;;15.03;8.00;;;10.70;99.90;;;;;;5031842;28;20420;-37
2022/10/03 05:49:47;;;;;;;11.83;7.40;;;10.80;99.90;;;;;;5031554;28;20413;-37
2022/10/03 05:52:27;;;;;;;13.10;8.83;;;10.80;99.90;;;;;;5044958;28;20438;-38
2022/10/03 05:55:19;;;;;;;15.00;7.57;;;10.80;99.90;;;;;;5038293;28;20510;-37
2022/10/03 05:58:24;;;;;;;14.63;6.20;;;10.80;99.90;;;;;;5018675;28;21043;-37
2022/10/03 06:01:26;;;;;;;12.70;7.07;;;10.80;99.90;;;;;;5017837;28;20436;-37
2022/10/03 06:04:08;;;;;;;11.47;8.23;;;10.80;99.90;;;;;;5030739;28;20425;-37
2022/10/03 06:06:58;;;;;;;13.50;6.20;;;10.70;99.90;;;;;;5031473;28;20472;-37
2022/10/03 06:10:03;;;;;;;12.40;9.03;;;10.70;99.90;;;;;;5030913;28;20813;-37
2022/10/03 06:12:39;;;;;;;18.00;7.90;;;10.60;99.90;;;;;;5031058;28;20423;-37
2022/10/03 06:15:32;;;;;;;10.50;7.37;;;10.70;99.90;;;;;;5028702;28;20483;-37
2022/10/03 06:18:33;;;;;;;13.80;7.57;;;10.70;99.90;;;;;;5030796;28;20424;-37
2022/10/03 06:20:59;;;;;;;14.13;7.67;;;10.80;99.90;;;;;;5030277;28;20456;-37
2022/10/03 06:23:57;;;;;;;13.60;7.97;;;10.90;99.90;;;;;;5026112;28;20464;-37
2022/10/03 06:26:37;;;;;;;13.83;8.30;;;11.00;99.90;;;;;;5026383;28;20186;-37
2022/10/03 06:29:40;;;;;;;11.80;7.57;;;11.00;99.90;;;;;;5030746;28;20970;-37
2022/10/03 06:32:13;;;;;;;14.90;8.07;;;11.10;99.90;;;;;;5030961;28;20751;-37
2022/10/03 06:35:01;;;;;;;15.87;7.77;;;11.10;99.90;;;;;;5029857;28;20475;-37
2022/10/03 06:37:53;;;;;;;11.50;8.00;;;11.10;99.90;;;;;;5030896;28;20425;-37
2022/10/03 06:40:47;;;;;;;13.10;8.80;;;11.20;99.90;;;;;;5030671;28;20479;-37
2022/10/03 06:43:42;;;;;;;10.57;7.70;;;11.20;99.90;;;;;;5029953;28;20427;-37
2022/10/03 06:46:44;;;;;;;12.50;7.77;;;11.30;99.90;;;;;;5030615;28;20429;-37
2022/10/03 06:49:49;;;;;;;15.70;8.43;;;11.30;99.90;;;;;;5030102;28;20464;-37
2022/10/03 06:52:24;;;;;;;15.47;7.10;;;11.40;99.90;;;;;;5030120;28;20421;-38
2022/10/03 06:55:10;;;;;;;11.67;7.53;;;11.40;99.90;;;;;;5041105;28;21062;-37
2022/10/03 06:58:07;;;;;;;14.17;7.50;;;11.40;99.90;;;;;;5030121;28;20429;-38
2022/10/03 07:01:01;;;;;;;11.73;6.90;;;11.40;99.90;;;;;;5030327;28;20512;-37
2022/10/03 07:03:57;;;;;;;17.00;8.17;;;11.50;99.90;;;;;;5029686;28;20924;-38
2022/10/03 07:06:38;;;;;;;19.53;8.40;;;11.50;99.90;;;;;;5030148;28;20452;-37
2022/10/03 07:09:52;;;;;;;14.53;9.30;;;11.60;99.90;;;;;;5030232;28;20451;-37
2022/10/03 07:12:53;;;;;;;14.80;8.43;;;11.70;99.90;;;;;;5030252;28;20440;-38
2022/10/03 07:15:47;;;;;;;13.47;7.23;;;11.80;99.90;;;;;;5028904;28;20495;-37
2022/10/03 07:18:32;;;;;;;14.10;7.73;;;11.90;99.90;;;;;;5029889;28;20432;-38
2022/10/03 07:21:43;;;;;;;16.77;8.00;;;11.90;99.90;;;;;;5033367;28;20460;-37
2022/10/03 07:24:27;;;;;;;13.03;7.83;;;11.90;99.90;;;;;;5029511;28;20448;-37
2022/10/03 07:27:25;;;;;;;18.37;9.70;;;12.00;99.90;;;;;;5030021;28;20527;-38
2022/10/03 07:30:06;;;;;;;15.30;8.90;;;12.00;99.90;;;;;;5029902;28;20433;-37
2022/10/03 07:32:42;;;;;;;14.20;9.63;;;12.00;99.90;;;;;;5029919;28;20512;-38
2022/10/03 07:41:59;;;;;;;12.90;8.10;;;12.10;99.90;;;;;;5029790;28;20433;-38
2022/10/03 07:44:55;;;;;;;11.67;7.53;;;12.10;99.90;;;;;;5029232;28;20446;-37
2022/10/03 07:47:27;;;;;;;16.43;7.93;;;12.20;99.90;;;;;;5029482;28;20850;-37
2022/10/03 07:50:23;;;;;;;18.80;8.97;;;12.50;99.90;;;;;;5029901;28;20417;-37
2022/10/03 07:53:25;;;;;;;13.87;8.07;;;12.90;99.90;;;;;;5029016;28;20429;-38
2022/10/03 07:56:16;;;;;;;15.60;7.97;;;13.00;99.90;;;;;;5027496;28;21199;-37
2022/10/03 07:59:03;;;;;;;11.40;7.20;;;13.00;99.90;;;;;;5028995;28;20884;-38
2022/10/03 08:01:47;;;;;;;10.27;7.23;;;13.10;99.90;;;;;;5029638;28;20429;-38
2022/10/03 08:04:40;;;;;;;11.47;8.30;;;13.30;99.90;;;;;;5028863;28;20441;-38
2022/10/03 08:07:27;;;;;;;13.97;7.77;;;13.60;99.90;;;;;;5029620;28;21242;-38
2022/10/03 08:09:58;;;;;;;13.83;7.20;;;13.80;99.90;;;;;;5029673;28;20449;-37
2022/10/03 08:12:30;;;;;;;13.80;7.40;;;14.00;99.90;;;;;;5029085;28;20417;-37
2022/10/03 08:15:10;;;;;;;16.03;7.63;;;14.20;99.90;;;;;;5028934;28;20460;-37
2022/10/03 08:17:57;;;;;;;17.10;8.40;;;14.30;99.90;;;;;;5029518;28;20467;-38
2022/10/03 08:20:41;;;;;;;13.10;7.17;;;14.50;99.90;;;;;;5032380;28;20413;-38
2022/10/03 08:23:28;;;;;;;12.20;6.53;;;14.70;99.90;;;;;;5027453;28;20425;-38
2022/10/03 08:26:13;;;;;;;17.03;6.30;;;14.80;99.90;;;;;;5029693;28;20421;-38
2022/10/03 08:28:57;;;;;;;13.27;5.97;;;14.90;99.90;;;;;;5029373;28;20823;-39
2022/10/03 08:31:51;;;;;;;13.07;5.50;;;15.00;99.90;;;;;;5029555;28;20416;-37
2022/10/03 08:34:54;;;;;;;13.47;6.07;;;15.10;99.90;;;;;;5028443;28;20464;-37
2022/10/03 08:37:40;;;;;;;9.53;4.90;;;15.20;99.90;;;;;;5022764;28;20474;-37
2022/10/03 08:40:37;;;;;;;12.53;5.20;;;15.20;99.90;;;;;;5012416;28;20421;-38
2022/10/03 08:43:37;;;;;;;12.80;5.97;;;15.40;99.90;;;;;;5028198;28;20413;-37
2022/10/03 08:46:24;;;;;;;8.50;4.70;;;15.50;99.90;;;;;;5029238;28;20429;-38
2022/10/03 08:49:05;;;;;;;12.47;5.60;;;15.70;99.90;;;;;;5029133;28;20536;-38
2022/10/03 08:51:54;;;;;;;12.43;5.13;;;15.80;99.90;;;;;;5021104;28;20436;-38
2022/10/03 08:54:46;;;;;;;8.57;4.30;;;16.00;99.90;;;;;;5017859;28;20464;-38
2022/10/03 08:57:30;;;;;;;8.27;4.50;;;16.20;99.90;;;;;;5032562;28;20417;-37
2022/10/03 09:00:18;;;;;;;14.73;6.27;;;16.30;99.90;;;;;;5030652;28;20429;-38
2022/10/03 09:03:05;;;;;;;9.23;6.10;;;15.90;99.90;;;;;;5029486;28;20441;-37
2022/10/03 09:05:55;;;;;;;17.13;6.50;;;15.70;99.90;;;;;;5030581;28;20784;-38
2022/10/03 09:08:36;;;;;;;10.73;5.60;;;15.60;99.90;;;;;;5019569;28;20466;-37
2022/10/03 09:11:45;;;;;;;15.50;7.33;;;15.60;99.90;;;;;;5031315;28;20464;-38
2022/10/03 09:14:39;;;;;;;13.47;6.73;;;15.70;99.90;;;;;;5024114;28;20452;-39
2022/10/03 09:17:24;;;;;;;8.40;5.87;;;15.80;99.90;;;;;;5028109;28;20436;-38
2022/10/03 09:20:01;;;;;;;12.90;5.00;;;15.90;99.90;;;;;;5030815;28;20990;-38
2022/10/03 09:22:58;;;;;;;8.83;4.70;;;16.10;99.90;;;;;;5030213;28;20476;-37
2022/10/03 09:25:27;;;;;;;18.13;6.37;;;16.30;99.90;;;;;;5025332;28;20540;-38
2022/10/03 09:28:08;;;;;;;11.80;4.87;;;16.40;99.90;;;;;;5032317;28;20531;-38
2022/10/03 09:30:40;;;;;;;9.20;4.70;;;16.60;99.90;;;;;;5041911;28;20536;-38
2022/10/03 09:33:43;;;;;;;10.30;4.33;;;16.70;99.90;;;;;;5030076;28;20472;-38
2022/10/03 09:36:20;;;;;;;11.80;4.93;;;16.80;99.90;;;;;;5043683;28;20444;-38
2022/10/03 09:39:01;;;;;;;7.50;4.63;;;16.90;99.90;;;;;;5051242;28;20475;-38
2022/10/03 09:41:51;;;;;;;11.47;5.80;;;17.00;99.90;;;;;;5032686;28;20440;-38
2022/10/03 09:45:07;;;;;;;16.40;5.93;;;16.80;99.90;;;;;;5035116;28;20453;-38
2022/10/03 09:47:53;;;;;;;11.17;5.73;;;16.60;99.90;;;;;;5034596;28;20556;-38
2022/10/03 09:51:08;;;;;;;9.37;3.70;;;16.40;99.90;;;;;;5042005;28;20539;-39
2022/10/03 09:53:36;;;;;;;9.03;4.53;;;16.20;99.90;;;;;;4987906;28;20569;-38
2022/10/03 09:56:39;;;;;;;9.97;4.40;;;16.00;99.90;;;;;;4989130;28;20446;-38
2022/10/03 09:59:41;;;;;;;10.00;5.00;;;15.90;99.90;;;;;;5020696;28;20830;-38
2022/10/03 10:02:43;;;;;;;10.07;5.03;;;15.90;99.90;;;;;;5024010;28;21130;-38
2022/10/03 10:05:37;;;;;;;6.67;3.33;;;16.20;99.90;;;;;;5027013;28;20448;-37
2022/10/03 10:08:28;;;;;;;8.63;2.13;;;16.40;99.90;;;;;;5041624;28;20460;-37
2022/10/03 10:11:25;;;;;;;3.83;2.30;;;16.50;99.90;;;;;;5047600;28;20610;-37
2022/10/03 10:14:08;;;;;;;8.30;2.10;;;16.70;99.90;;;;;;5015486;28;20560;-37
2022/10/03 10:16:34;;;;;;;4.43;1.87;;;16.80;99.90;;;;;;5026023;28;20967;-39
2022/10/03 10:19:23;;;;;;;5.00;2.30;;;16.80;99.90;;;;;;5025497;28;20495;-38
2022/10/03 10:22:02;;;;;;;5.23;1.97;;;16.70;99.90;;;;;;5040380;28;20228;-39
2022/10/03 10:24:31;;;;;;;8.63;2.00;;;16.70;99.90;;;;;;5036024;28;20492;-37
2022/10/03 10:27:09;;;;;;;8.83;2.33;;;16.60;99.90;;;;;;5028423;28;20889;-39
2022/10/03 10:29:41;;;;;;;5.20;1.93;;;16.60;99.90;;;;;;5023689;28;20852;-37
2022/10/03 10:32:31;;;;;;;5.37;2.00;;;16.60;99.90;;;;;;5031894;28;20530;-38
2022/10/03 10:35:15;;;;;;;5.47;1.90;;;16.60;99.90;;;;;;5033006;28;20569;-38
2022/10/03 10:38:20;;;;;;;7.70;2.20;;;16.50;99.90;;;;;;5036541;28;20508;-38
2022/10/03 10:41:40;;;;;;;4.60;2.20;;;16.40;99.90;;;;;;5035604;28;20436;-37
2022/10/03 10:44:32;;;;;;;7.80;2.50;;;16.30;99.90;;;;;;5045794;28;20546;-38
2022/10/03 10:47:16;;;;;;;6.97;3.00;;;16.20;99.90;;;;;;4985361;28;20468;-38
2022/10/03 10:50:10;;;;;;;7.63;2.50;;;16.10;99.90;;;;;;5030975;28;20454;-38
2022/10/03 10:53:00;;;;;;;4.70;2.00;;;16.10;99.90;;;;;;5030104;28;20608;-38
2022/10/03 10:55:44;;;;;;;6.33;2.87;;;15.90;99.90;;;;;;5026074;28;20441;-38
2022/10/03 10:58:09;;;;;;;7.57;2.53;;;15.80;99.90;;;;;;5031092;28;20548;-38
2022/10/03 11:00:48;;;;;;;6.13;2.20;;;15.80;99.90;;;;;;5030249;28;20465;-38
2022/10/03 11:03:56;;;;;;;6.70;2.40;;;16.00;99.90;;;;;;5025789;28;20637;-38
2022/10/03 11:07:06;;;;;;;5.63;2.30;;;16.00;99.90;;;;;;5027466;28;20527;-37
2022/10/03 11:09:51;;;;;;;6.63;2.57;;;16.00;99.90;;;;;;5029209;28;20542;-37
2022/10/03 11:12:55;;;;;;;5.80;2.00;;;16.00;99.90;;;;;;5032448;28;20596;-38
2022/10/03 11:16:04;;;;;;;5.30;2.17;;;16.00;99.90;;;;;;5026168;28;20464;-39
2022/10/03 11:18:58;;;;;;;4.80;2.17;;;16.00;99.90;;;;;;5029835;28;20451;-38
2022/10/03 11:21:42;;;;;;;6.13;1.97;;;15.90;99.90;;;;;;5030226;28;21894;-38
2022/10/03 11:24:29;;;;;;;4.20;1.73;;;15.90;99.90;;;;;;5029830;28;20960;-38
2022/10/03 11:27:25;;;;;;;4.70;2.10;;;16.10;99.90;;;;;;5032804;28;21006;-38
2022/10/03 11:29:57;;;;;;;4.43;2.00;;;16.40;99.90;;;;;;5025741;28;20487;-38
2022/10/03 11:33:00;;;;;;;6.03;2.30;;;16.60;99.90;;;;;;5035729;28;20456;-38
2022/10/03 11:35:47;;;;;;;2.87;1.40;;;16.60;99.90;;;;;;5031558;28;20850;-38
2022/10/03 11:38:33;;;;;;;5.37;1.77;;;16.60;99.90;;;;;;5041996;28;20448;-38
2022/10/03 11:41:10;;;;;;;5.93;2.83;;;16.50;99.90;;;;;;5024438;28;20440;-39
2022/10/03 11:43:53;;;;;;;4.97;1.80;;;16.60;99.90;;;;;;5032326;28;20548;-38
2022/10/03 11:46:31;;;;;;;6.20;1.90;;;16.80;99.90;;;;;;5026242;28;20459;-37
2022/10/03 11:49:26;;;;;;;4.83;1.77;;;17.00;99.90;;;;;;5034647;28;20963;-38
2022/10/03 11:51:58;;;;;;;4.67;2.13;;;17.00;99.90;;;;;;5020346;28;20952;-38
2022/10/03 11:54:36;;;;;;;8.07;2.43;;;17.00;99.90;;;;;;5037815;28;20464;-38
2022/10/03 11:57:12;;;;;;;4.53;1.90;;;16.90;99.90;;;;;;5036526;28;20433;-39
2022/10/03 11:59:47;;;;;;;5.90;2.13;;;16.80;99.90;;;;;;5030453;28;20563;-38
2022/10/03 12:02:18;;;;;;;4.27;2.03;;;16.70;99.90;;;;;;5038785;28;20516;-38
2022/10/03 12:04:58;;;;;;;3.60;1.90;;;16.80;99.90;;;;;;5031987;28;20552;-38
2022/10/03 12:10:37;;;;;;;6.63;2.50;;;17.00;99.90;;;;;;5030622;28;20440;-38
2022/10/03 12:13:12;;;;;;;4.40;2.40;;;17.00;99.90;;;;;;5036870;28;20460;-38
2022/10/03 12:15:37;;;;;;;3.90;2.10;;;16.90;99.90;;;;;;5042019;28;20981;-38
2022/10/03 12:18:24;;;;;;;4.33;2.10;;;16.80;99.90;;;;;;5036372;28;20450;-38
2022/10/03 12:20:59;;;;;;;5.67;2.27;;;16.80;99.90;;;;;;5035736;28;20288;-38
2022/10/03 12:23:40;;;;;;;2.03;1.60;;;16.70;99.90;;;;;;5037455;28;20439;-38
2022/10/03 12:26:14;;;;;;;3.87;1.90;;;16.50;99.90;;;;;;5052513;28;20427;-38
2022/10/03 12:28:47;;;;;;;2.70;1.83;;;16.50;99.90;;;;;;5052608;28;20424;-38
2022/10/03 12:31:41;;;;;;;7.20;1.90;;;16.50;99.90;;;;;;5053129;28;20456;-38
2022/10/03 12:34:25;;;;;;;3.40;1.53;;;16.50;99.90;;;;;;5049725;28;20542;-38
2022/10/03 12:37:27;;;;;;;3.27;1.60;;;16.50;99.90;;;;;;5032620;28;20405;-38
2022/10/03 12:40:09;;;;;;;5.10;2.97;;;16.40;99.90;;;;;;5002343;28;20425;-37
2022/10/03 12:42:52;;;;;;;4.93;1.73;;;16.50;99.90;;;;;;5031978;28;20508;-38
2022/10/03 12:45:36;;;;;;;5.20;2.33;;;16.40;99.90;;;;;;5032483;28;20429;-39
2022/10/03 12:48:31;;;;;;;3.80;2.20;;;16.30;99.90;;;;;;5032877;28;20436;-38
2022/10/03 12:51:25;;;;;;;5.20;1.93;;;16.20;99.90;;;;;;5032907;28;20455;-40
2022/10/03 12:54:08;;;;;;;5.40;1.63;;;16.10;99.90;;;;;;5026788;28;20475;-38
2022/10/03 12:56:58;;;;;;;4.50;2.90;;;16.10;99.90;;;;;;5031636;28;20455;-38
2022/10/03 12:59:33;;;;;;;4.30;2.33;;;16.00;99.90;;;;;;5032505;28;20447;-38
2022/10/03 13:02:31;;;;;;;8.20;2.00;;;16.00;99.90;;;;;;5032231;28;20431;-39
2022/10/03 13:05:21;;;;;;;5.30;2.20;;;16.10;99.90;;;;;;5031873;28;20449;-38
2022/10/03 13:08:21;;;;;;;8.47;2.00;;;16.10;99.90;;;;;;5031000;28;20520;-38
2022/10/03 13:10:59;;;;;;;6.27;2.17;;;16.20;99.90;;;;;;5032488;28;20444;-38
2022/10/03 13:13:58;;;;;;;4.87;1.93;;;16.30;99.90;;;;;;5031663;28;20500;-38
2022/10/03 13:16:59;;;;;;;4.13;2.00;;;16.30;99.90;;;;;;5032029;28;20417;-38
2022/10/03 13:19:52;;;;;;;3.30;1.90;;;16.40;99.90;;;;;;5032719;28;20424;-37
2022/10/03 13:22:53;;;;;;;7.40;2.03;;;16.50;99.90;;;;;;5039116;28;20421;-38
2022/10/03 13:25:55;;;;;;;1.93;1.63;;;16.60;99.90;;;;;;5031460;28;20506;-38
2022/10/03 13:28:31;;;;;;;3.47;1.77;;;16.70;99.90;;;;;;5032119;28;20441;-38
2022/10/03 13:31:25;;;;;;;6.57;1.90;;;16.80;99.90;;;;;;5031897;28;20910;-38
2022/10/03 13:33:54;;;;;;;4.60;1.87;;;16.90;99.90;;;;;;5031432;28;20497;-38
2022/10/03 13:36:34;;;;;;;3.87;1.50;;;16.90;99.90;;;;;;5031093;28;20429;-38
2022/10/03 13:39:08;;;;;;;4.50;1.70;;;16.90;99.90;;;;;;5031588;28;20436;-37
2022/10/03 13:41:41;;;;;;;5.40;1.47;;;16.90;99.90;;;;;;5031859;28;20420;-38
2022/10/03 13:44:18;;;;;;;4.13;1.60;;;17.00;99.90;;;;;;5031207;28;20467;-38
2022/10/03 13:47:02;;;;;;;4.80;1.70;;;17.10;99.90;;;;;;5029334;28;20760;-37
2022/10/03 13:49:37;;;;;;;4.13;1.50;;;17.20;99.90;;;;;;5041523;28;20519;-37
2022/10/03 13:52:23;;;;;;;3.50;1.83;;;17.40;99.90;;;;;;5029381;28;20433;-38
2022/10/03 13:54:58;;;;;;;5.50;1.80;;;17.50;99.90;;;;;;5020229;28;20521;-38
2022/10/03 13:57:37;;;;;;;2.70;1.57;;;17.60;99.90;;;;;;5032798;28;20801;-38
2022/10/03 14:00:34;;;;;;;4.10;2.00;;;17.60;99.90;;;;;;5031584;28;20841;-37
2022/10/03 14:03:29;;;;;;;3.30;1.53;;;17.60;99.90;;;;;;5032368;28;20455;-38
2022/10/03 14:06:27;;;;;;;4.03;1.57;;;17.70;99.90;;;;;;5036681;28;20469;-37
2022/10/03 14:09:21;;;;;;;4.87;1.60;;;17.70;99.90;;;;;;5032057;28;20484;-37
2022/10/03 14:12:06;;;;;;;4.10;1.50;;;17.80;99.90;;;;;;5031795;28;21190;-40
2022/10/03 14:15:07;;;;;;;3.17;1.47;;;17.90;99.90;;;;;;5039161;28;20487;-37
2022/10/03 14:17:44;;;;;;;5.80;1.93;;;18.00;99.90;;;;;;5039308;28;20479;-38
2022/10/03 14:20:28;;;;;;;2.23;1.50;;;18.00;99.90;;;;;;5038025;28;20469;-37
2022/10/03 14:23:17;;;;;;;3.43;1.80;;;17.90;99.90;;;;;;5038547;28;20457;-38
2022/10/03 14:26:14;;;;;;;6.43;1.97;;;17.90;99.90;;;;;;5040361;28;20460;-38
2022/10/03 14:28:50;;;;;;;9.43;1.87;;;17.80;99.90;;;;;;5031573;28;20544;-37
2022/10/03 14:31:30;;;;;;;3.90;1.70;;;17.80;99.90;;;;;;5034746;28;20448;-38
2022/10/03 14:34:21;;;;;;;3.13;1.50;;;17.70;99.90;;;;;;5039946;28;20964;-38
2022/10/03 14:36:57;;;;;;;4.03;1.87;;;17.80;99.90;;;;;;5035185;28;20919;-38
2022/10/03 14:39:46;;;;;;;3.83;1.37;;;17.80;99.90;;;;;;5031011;28;20579;-38